Details From UTSB - Bukhara
To UTAA - Ashgabat
Flight Number -
Tags Generated
Created
Modified
Stats Distance 306 nm / 566 km
Max Altitude 0 ft / 0 m
Waypoints 3
Social Downloads 0
Likes 0
Share VATSIM

Download

Looking for another format? Having issues loading an existing format? Contact us
Advertisement - Login to hide

Notes

Generated

Route

UTSB R2504 UTAA

ID Type Via Altitude Latitude Longitude Leg Dist Tot Dist Heading (true) Name
O UTSB APT - 0 ft / 0 m 39.76167˚ 64.48000˚ - 0 nm - -
R2504 FIX - 0 ft / 0 m 37.98345˚ 58.38081˚ 304 nm 304 nm 251° / 248° -
O UTAA APT - 0 ft / 0 m 37.97802˚ 58.35791˚ 1 nm 305 nm 253° / 253° ASHGABAT

Altitude Profile

Advertisement - Login to hide

Weather


0- 5 10 15 20 25 30 35+ Temperature / ° C

Clouds and Precipitation
Forecast for 2017-12-15 00:00 UTC. Updated 2 hours ago

Ground ~20,000 ft ~40,000 ft Winds

UTSB

Details ICAO UTSB (BHK)
Name BUKHARA
Region Tajikistan, Turkmenistan and Uzbekistan
Timezone Asia/Samarkand (UTC+5.0)
Stats Elevation 751 ft / 229 m (AMSL)
Location 39.775000° 64.483334°
Runways 1
Magnetic Variation 5.243° E

METAR

Not found

TAF

TAF UTSB 141700Z 1418/1518 VRB03KT 3000 BR OVC005 TEMPO 1418/1505 36008KT 0500 FZFG VV002

Decode

Departure Runways

ID Width Length Bearing (true) Bearing (mag) Surface Threshold Offset Overrun Length
01 147 ft / 45 m 9,909 ft / 3,020 m 10.87° 5.63° Asphalt 0 ft / 0 m 177 ft / 54 m
19 147 ft / 45 m 9,909 ft / 3,020 m 190.88° 185.64° Asphalt 0 ft / 0 m 177 ft / 54 m

UTAA

Details ICAO UTAA (ASB)
Name ASHGABAT
Region Tajikistan, Turkmenistan and Uzbekistan
Timezone Asia/Ashgabat (UTC+5.0)
Stats Elevation 692 ft / 211 m (AMSL)
Location 37.982867° 58.363112°
Runways 3
Magnetic Variation 4.997° E

METAR

UTAA 142300Z 07004KT 2800 BR NSC M05/M07 Q1023 R88/CLRD70 NOSIG

Decode

TAF

TAF AMD UTAA 141322Z 1413/1512 09014KT 4000 BR SCT020 530005 BECMG 1415/1417 2000 BR BKN007 TEMPO 1419/1423 1000 BR OVC002 TEMPO 1423/1506 0300 FZFG VV001 BECMG 1506/1507 12010G20KT 4000 BR BKN005

Decode

Destination Runways

ID Width Length Bearing (true) Bearing (mag) Surface Threshold Offset Overrun Length
11 114 ft / 35 m 5,898 ft / 1,798 m 112.14° 107.14° Asphalt 890 ft / 271 m 0 ft / 0 m
12L 151 ft / 46 m 12,446 ft / 3,794 m 119.49° 114.49° Concrete 0 ft / 0 m 190 ft / 58 m
12R 196 ft / 60 m 9,805 ft / 2,989 m 119.48° 114.48° Concrete 0 ft / 0 m 150 ft / 46 m
29 114 ft / 35 m 5,898 ft / 1,798 m 292.15° 287.15° Asphalt 1,965 ft / 599 m 0 ft / 0 m
30L 196 ft / 60 m 9,805 ft / 2,989 m 299.50° 294.50° Concrete 0 ft / 0 m 150 ft / 46 m
30R 151 ft / 46 m 12,446 ft / 3,794 m 299.51° 294.51° Concrete 0 ft / 0 m 190 ft / 58 m

Approach Navaids

Runway Type Ident Frequency Range Bearing (true) Bearing (mag) Slope Elevation
12L Localiser ABW 108.50 MHz 18 nm / 33 km 119.52° 114.52° - 692 ft / 211 m (AMSL)
30R Localiser AHD 108.70 MHz 18 nm / 33 km 299.50° 294.50° - 692 ft / 211 m (AMSL)

Popular Alternatives